Time;durP1;ratioP1;P1;durP2;ratioP2;P2;SDS_P1;SDS_P2;PMS_P1;PMS_P2;Temp;Humidity;BMP_temperature;BMP_pressure;BME280_temperature;BME280_humidity;BME280_pressure;Samples;Min_cycle;Max_cycle;Signal;HPM_P1;HPM_P2
2022/08/01 00:00:31;;;;;;;12.52;4.88;;;;;;;18.08;100.00;100622.97;5075250;28;20052;-77
2022/08/01 00:02:56;;;;;;;7.75;5.32;;;;;;;18.07;100.00;100618.63;5074334;28;20025;-77
2022/08/01 00:05:22;;;;;;;10.77;5.63;;;;;;;18.05;100.00;100603.75;5073255;28;20044;-78
2022/08/01 00:07:48;;;;;;;10.25;5.20;;;;;;;18.01;100.00;100603.16;5075423;28;20032;-78
2022/08/01 00:10:15;;;;;;;5.80;4.72;;;;;;;18.08;100.00;100612.31;5074054;28;20033;-78
2022/08/01 00:12:41;;;;;;;5.68;4.63;;;;;;;18.03;100.00;100606.53;5075959;28;20025;-76
2022/08/01 00:15:09;;;;;;;10.48;4.68;;;;;;;18.19;100.00;100644.28;5074998;28;20025;-76
2022/08/01 00:17:34;;;;;;;6.07;4.88;;;;;;;17.69;100.00;100548.97;5056789;28;20680;-77
2022/08/01 00:20:00;;;;;;;7.65;4.60;;;;;;;17.91;100.00;100596.88;5091416;27;20053;-77
2022/08/01 00:22:25;;;;;;;6.63;4.80;;;;;;;18.19;100.00;100628.31;5074559;28;20489;-77
2022/08/01 00:24:51;;;;;;;6.28;5.00;;;;;;;18.26;100.00;100634.84;5077803;28;20036;-76
2022/08/01 00:27:16;;;;;;;7.43;4.57;;;;;;;18.20;100.00;100614.06;5061065;28;20073;-75
2022/08/01 00:29:41;;;;;;;7.65;4.72;;;;;;;17.95;100.00;100571.69;5062232;28;20075;-76
2022/08/01 00:32:07;;;;;;;8.25;5.22;;;;;;;18.25;100.00;100617.19;5069443;28;20055;-76
2022/08/01 00:34:32;;;;;;;6.05;4.75;;;;;;;18.14;100.00;100601.22;5057147;28;20575;-76
2022/08/01 00:36:58;;;;;;;7.00;3.72;;;;;;;18.14;100.00;100609.22;5072246;28;20032;-76
2022/08/01 00:39:23;;;;;;;6.95;4.18;;;;;;;18.14;100.00;100600.38;5067362;28;20029;-76
2022/08/01 00:41:49;;;;;;;9.75;5.13;;;;;;;18.18;100.00;100613.31;5055935;28;20390;-76
2022/08/01 00:44:14;;;;;;;5.32;4.10;;;;;;;18.12;100.00;100600.50;5055037;28;20072;-76
2022/08/01 00:46:39;;;;;;;5.80;4.28;;;;;;;18.15;100.00;100616.22;5073928;28;20032;-76
2022/08/01 00:49:05;;;;;;;7.40;4.85;;;;;;;18.21;100.00;100637.03;5084060;28;20111;-76
2022/08/01 00:51:30;;;;;;;7.35;4.00;;;;;;;18.08;100.00;100620.31;5075575;28;20043;-75
2022/08/01 00:53:56;;;;;;;8.18;4.63;;;;;;;18.07;100.00;100623.97;5065854;28;20036;-75
2022/08/01 00:56:24;;;;;;;5.47;4.32;;;;;;;18.17;100.00;100643.56;5067029;28;20472;-76
2022/08/01 00:58:49;;;;;;;5.50;4.47;;;;;;;18.07;100.00;100621.28;5075949;28;20390;-76
2022/08/01 01:01:15;;;;;;;6.15;4.35;;;;;;;17.84;100.00;100590.31;5059704;28;20037;-76
2022/08/01 01:03:41;;;;;;;6.05;4.53;;;;;;;18.17;100.00;100635.56;5071790;28;20057;-75
2022/08/01 01:06:26;;;;;;;4.85;4.00;;;;;;;18.18;100.00;100639.91;5063481;28;20107;-75
2022/08/01 01:09:04;;;;;;;6.68;4.82;;;;;;;18.16;100.00;100639.19;5080006;28;20025;-76
2022/08/01 01:11:37;;;;;;;5.85;4.60;;;;;;;18.06;100.00;100627.56;5061762;28;20116;-75
2022/08/01 01:14:10;;;;;;;7.30;4.90;;;;;;;18.06;100.00;100619.59;5086339;28;20028;-76
2022/08/01 01:16:37;;;;;;;6.60;4.45;;;;;;;18.13;100.00;100636.78;5079263;28;20444;-75
2022/08/01 01:19:03;;;;;;;6.75;4.03;;;;;;;18.12;100.00;100643.03;5083197;28;20021;-75
2022/08/01 01:21:39;;;;;;;6.90;4.15;;;;;;;18.13;100.00;100643.91;5067568;28;20028;-75
2022/08/01 01:24:05;;;;;;;7.15;4.13;;;;;;;18.12;100.00;100637.72;5089959;28;20051;-75
2022/08/01 01:26:55;;;;;;;9.38;4.63;;;;;;;18.12;100.00;100637.72;5072887;28;20407;-75
2022/08/01 01:29:23;;;;;;;8.88;3.40;;;;;;;18.00;100.00;100617.41;5086150;28;20017;-75
2022/08/01 01:31:55;;;;;;;10.40;4.25;;;;;;;18.10;100.00;100639.66;5082316;28;20032;-76
2022/08/01 01:34:21;;;;;;;6.00;3.85;;;;;;;17.83;100.00;100593.94;5073029;28;20036;-76
2022/08/01 01:36:48;;;;;;;9.63;4.40;;;;;;;18.08;100.00;100641.59;5063227;28;20035;-75
2022/08/01 01:39:14;;;;;;;5.68;3.80;;;;;;;18.09;100.00;100637.97;5068695;28;20471;-75
2022/08/01 01:41:40;;;;;;;6.30;3.67;;;;;;;17.93;100.00;100600.25;5062184;28;20021;-75
2022/08/01 01:44:06;;;;;;;5.40;3.70;;;;;;;18.07;100.00;100623.97;5060622;28;20032;-75
2022/08/01 01:46:32;;;;;;;7.45;4.38;;;;;;;17.88;100.00;100597.06;5059526;28;20511;-75
2022/08/01 01:48:58;;;;;;;8.55;3.78;;;;;;;17.91;100.00;100602.19;5061011;28;20024;-75
2022/08/01 01:51:25;;;;;;;4.82;3.67;;;;;;;17.99;100.00;100610.41;5070426;28;20035;-75
2022/08/01 01:53:53;;;;;;;7.53;3.80;;;;;;;18.06;100.00;100616.09;5055296;28;20060;-75
2022/08/01 01:56:19;;;;;;;6.95;4.18;;;;;;;18.09;100.00;100621.16;5075735;28;20383;-75
2022/08/01 01:58:45;;;;;;;7.05;3.38;;;;;;;18.09;100.00;100622.00;5057091;28;20028;-75
2022/08/01 02:01:11;;;;;;;5.55;4.40;;;;;;;17.97;100.00;100601.69;5071053;28;20290;-75
2022/08/01 02:03:37;;;;;;;6.30;3.78;;;;;;;18.01;100.00;100603.16;5073668;28;20127;-75
2022/08/01 02:06:03;;;;;;;8.25;4.38;;;;;;;18.07;100.00;100613.31;5081315;28;20074;-75
2022/08/01 02:08:30;;;;;;;6.22;4.00;;;;;;;17.98;100.00;100592.72;5074659;28;20347;-75
2022/08/01 02:13:40;;;;;;;5.88;4.03;;;;;;;17.93;100.00;100584.28;5078682;28;20075;-75
2022/08/01 02:16:05;;;;;;;8.90;4.88;;;;;;;17.95;100.00;100592.97;5087584;28;20025;-75
2022/08/01 02:18:32;;;;;;;6.20;3.88;;;;;;;18.02;100.00;100599.50;5069778;28;20024;-75
2022/08/01 02:20:59;;;;;;;6.53;4.60;;;;;;;18.05;100.00;100609.91;5068864;28;20529;-75
2022/08/01 02:23:28;;;;;;;7.50;4.25;;;;;;;17.97;100.00;100593.72;5065326;28;20035;-75
2022/08/01 02:25:55;;;;;;;8.90;4.38;;;;;;;18.10;100.00;100617.53;5032939;28;20033;-75
2022/08/01 02:28:28;;;;;;;9.82;4.55;;;;;;;18.10;100.00;100614.88;5079538;28;20494;-75
2022/08/01 02:30:56;;;;;;;7.50;4.82;;;;;;;18.01;100.00;100611.13;5077227;28;20027;-75
2022/08/01 02:33:24;;;;;;;5.47;4.00;;;;;;;18.04;100.00;100608.25;5070695;28;20494;-75
2022/08/01 02:35:54;;;;;;;6.00;4.35;;;;;;;17.81;100.00;100579.94;5082587;28;20040;-74
2022/08/01 02:38:24;;;;;;;6.28;4.78;;;;;;;18.00;100.00;100614.75;5075610;28;20505;-75
2022/08/01 02:40:52;;;;;;;9.52;5.60;;;;;;;17.92;100.00;100598.53;5070065;28;20020;-76
2022/08/01 02:43:21;;;;;;;6.50;4.90;;;;;;;17.77;100.00;100586.44;5069363;28;20387;-76
2022/08/01 02:45:51;;;;;;;10.00;5.07;;;;;;;17.69;100.00;100573.72;5067824;28;20024;-76
2022/08/01 02:48:18;;;;;;;11.52;4.85;;;;;;;17.95;100.00;100614.25;5070579;28;20020;-76
2022/08/01 02:50:46;;;;;;;8.02;4.82;;;;;;;17.89;100.00;100601.44;5084775;28;20025;-76
2022/08/01 02:53:13;;;;;;;9.23;5.47;;;;;;;17.87;100.00;100590.09;5060047;28;20055;-75
2022/08/01 02:55:39;;;;;;;12.57;4.78;;;;;;;17.95;100.00;100603.63;5080502;28;20059;-75
2022/08/01 02:58:06;;;;;;;7.15;4.80;;;;;;;18.03;100.00;100619.84;5057269;28;20077;-75
2022/08/01 03:00:33;;;;;;;7.55;5.13;;;;;;;17.86;100.00;100588.38;5062172;28;20112;-76
2022/08/01 03:03:00;;;;;;;8.02;5.10;;;;;;;17.63;100.00;100554.75;5069138;28;20029;-76
2022/08/01 03:05:25;;;;;;;7.47;5.10;;;;;;;17.98;100.00;100624.66;5090886;28;20107;-75
2022/08/01 03:07:54;;;;;;;8.75;5.75;;;;;;;17.99;100.00;100614.84;5090442;28;20059;-75
2022/08/01 03:10:20;;;;;;;10.15;5.38;;;;;;;17.82;100.00;100581.59;5051170;28;20032;-75
2022/08/01 03:12:46;;;;;;;8.18;4.97;;;;;;;17.88;100.00;100602.38;5075491;28;20046;-75
2022/08/01 03:15:12;;;;;;;9.82;5.28;;;;;;;17.79;100.00;100587.16;5091464;28;20528;-75
2022/08/01 03:17:40;;;;;;;6.03;4.95;;;;;;;17.79;100.00;100587.16;5082275;28;20071;-76
2022/08/01 03:20:08;;;;;;;8.23;5.45;;;;;;;17.55;100.00;100551.78;5086848;28;20111;-76
2022/08/01 03:22:34;;;;;;;6.57;5.43;;;;;;;17.85;100.00;100605.28;5066115;28;20040;-76
2022/08/01 03:25:01;;;;;;;7.82;5.90;;;;;;;17.88;100.00;100619.19;5103794;28;20127;-76
2022/08/01 03:27:27;;;;;;;8.73;5.35;;;;;;;17.94;100.00;100622.38;5087903;28;20016;-75
2022/08/01 03:29:55;;;;;;;10.13;6.32;;;;;;;17.92;100.00;100625.13;5076322;28;20066;-77
2022/08/01 03:32:21;;;;;;;9.05;5.45;;;;;;;17.95;100.00;100624.03;5069249;28;20024;-75
2022/08/01 03:34:47;;;;;;;7.97;5.07;;;;;;;17.85;100.00;100616.78;5071250;28;20043;-74
2022/08/01 03:37:17;;;;;;;10.65;6.15;;;;;;;17.91;100.00;100619.94;5067135;28;20029;-75
2022/08/01 03:39:50;;;;;;;15.15;6.50;;;;;;;17.98;100.00;100640.59;5094690;28;20031;-75
2022/08/01 03:42:19;;;;;;;11.02;5.78;;;;;;;18.00;100.00;100630.72;5093600;28;20020;-75
2022/08/01 03:44:50;;;;;;;13.02;6.95;;;;;;;18.01;100.00;100635.06;5087668;28;20489;-75
2022/08/01 03:47:16;;;;;;;7.38;5.68;;;;;;;17.81;100.00;100602.03;5063668;28;20033;-76
2022/08/01 03:49:43;;;;;;;10.35;5.93;;;;;;;17.80;100.00;100599.50;5084819;28;20194;-75
2022/08/01 03:52:09;;;;;;;12.43;7.03;;;;;;;17.96;100.00;100623.06;5064660;28;20020;-76
2022/08/01 03:54:37;;;;;;;13.57;8.35;;;;;;;17.99;100.00;100631.66;5073983;28;20021;-75
2022/08/01 03:57:03;;;;;;;9.27;7.05;;;;;;;17.73;100.00;100598.28;5083879;28;20031;-76
2022/08/01 03:59:30;;;;;;;12.00;8.02;;;;;;;17.97;100.00;100633.63;5088887;28;20033;-76
2022/08/01 04:01:55;;;;;;;12.48;9.23;;;;;;;17.82;100.00;100622.31;5075138;28;20028;-75
2022/08/01 04:04:21;;;;;;;15.88;8.52;;;;;;;17.90;100.00;100631.53;5087256;28;20036;-75
2022/08/01 04:06:50;;;;;;;13.05;9.23;;;;;;;17.95;100.00;100629.34;5060746;28;20028;-73
2022/08/01 04:09:15;;;;;;;10.52;7.53;;;;;;;17.86;100.00;100620.28;5068156;28;20430;-73
2022/08/01 04:11:41;;;;;;;11.38;7.90;;;;;;;17.88;100.00;100628.16;5053650;28;20076;-74
2022/08/01 04:14:07;;;;;;;11.75;8.55;;;;;;;17.84;100.00;100628.38;5058435;28;20105;-75
2022/08/01 04:16:32;;;;;;;12.82;9.50;;;;;;;17.85;100.00;100645.16;5089560;28;20059;-74
2022/08/01 04:18:57;;;;;;;11.50;8.60;;;;;;;17.71;100.00;100632.09;5061245;28;20494;-75
2022/08/01 04:21:27;;;;;;;15.98;10.25;;;;;;;17.70;100.00;100638.38;5060084;28;20063;-75
2022/08/01 04:23:54;;;;;;;18.35;10.65;;;;;;;17.72;100.00;100650.56;5062777;28;20033;-75
2022/08/01 04:26:19;;;;;;;23.40;11.60;;;;;;;17.24;100.00;100580.69;5073891;28;20083;-76
2022/08/01 04:28:46;;;;;;;15.18;11.35;;;;;;;17.32;100.00;100599.56;5086451;28;20028;-76
2022/08/01 04:31:13;;;;;;;15.90;11.32;;;;;;;17.45;100.00;100633.16;5063617;28;20119;-76
2022/08/01 04:33:45;;;;;;;15.25;11.60;;;;;;;17.56;100.00;100654.50;5064160;28;20036;-75
2022/08/01 04:36:12;;;;;;;13.52;11.35;;;;;;;17.42;100.00;100641.38;5047918;28;20077;-76
2022/08/01 04:38:38;;;;;;;20.55;14.18;;;;;;;17.32;100.00;100628.78;5078127;28;20041;-77
2022/08/01 04:41:06;;;;;;;13.93;11.77;;;;;;;17.45;100.00;100649.97;5056371;28;20062;-78
2022/08/01 04:43:32;;;;;;;19.98;13.35;;;;;;;17.28;100.00;100635.28;5090359;28;20752;-78
2022/08/01 04:45:58;;;;;;;15.75;12.57;;;;;;;17.31;100.00;100639.50;5060013;28;20021;-78
2022/08/01 04:48:24;;;;;;;14.88;12.32;;;;;;;17.33;100.00;100649.09;5067155;28;20028;-77
2022/08/01 04:50:50;;;;;;;16.67;14.80;;;;;;;17.47;100.00;100671.13;5067519;28;20082;-77
2022/08/01 04:53:17;;;;;;;20.83;14.50;;;;;;;17.40;100.00;100653.94;5090992;28;20020;-78
2022/08/01 04:55:46;;;;;;;19.88;14.65;;;;;;;17.45;100.00;100655.28;5063353;28;20545;-79
2022/08/01 04:58:12;;;;;;;21.65;13.27;;;;;;;16.98;100.00;100586.22;5054901;28;20416;-77
2022/08/01 05:00:37;;;;;;;23.40;16.00;;;;;;;17.23;100.00;100632.13;5058868;28;20038;-77
2022/08/01 05:03:02;;;;;;;18.48;13.32;;;;;;;17.44;100.00;100666.84;5076784;28;20409;-76
2022/08/01 05:05:28;;;;;;;18.70;13.68;;;;;;;17.42;100.00;100663.47;5074406;28;20040;-76
2022/08/01 05:07:53;;;;;;;22.40;14.25;;;;;;;17.31;100.00;100640.34;5075043;28;20063;-76
2022/08/01 05:10:19;;;;;;;21.90;13.88;;;;;;;17.44;100.00;100656.22;5066982;28;20052;-76
2022/08/01 05:12:46;;;;;;;16.75;13.20;;;;;;;17.45;100.00;100652.63;5065323;28;20033;-76
2022/08/01 05:15:11;;;;;;;23.40;14.02;;;;;;;17.46;100.00;100642.84;5068372;28;20158;-77
2022/08/01 05:17:37;;;;;;;20.20;14.75;;;;;;;17.55;100.00;100652.78;5065005;28;20111;-77
2022/08/01 05:20:02;;;;;;;16.83;14.15;;;;;;;17.70;100.00;100672.94;5078202;28;20028;-76
2022/08/01 05:22:28;;;;;;;21.75;16.90;;;;;;;17.63;100.00;100669.03;5056695;28;20024;-76
2022/08/01 05:24:53;;;;;;;21.95;16.17;;;;;;;17.38;100.00;100633.63;5054597;28;20037;-77
2022/08/01 05:27:19;;;;;;;21.98;15.45;;;;;;;17.57;100.00;100666.84;5063529;28;20020;-77
2022/08/01 05:29:44;;;;;;;19.45;17.08;;;;;;;17.36;100.00;100642.69;5057476;28;20480;-77
2022/08/01 05:32:10;;;;;;;20.42;17.42;;;;;;;17.15;100.00;100610.59;5065338;28;20045;-76
2022/08/01 05:34:35;;;;;;;21.50;17.05;;;;;;;17.57;100.00;100674.81;5053044;28;20480;-76
2022/08/01 05:37:01;;;;;;;25.77;17.67;;;;;;;17.67;100.00;100689.97;5071516;28;20024;-76
2022/08/01 05:39:26;;;;;;;22.00;17.77;;;;;;;17.66;100.00;100682.94;5112496;27;20099;-77
2022/08/01 05:41:51;;;;;;;19.15;17.13;;;;;;;17.79;100.00;100704.97;5061682;28;20031;-76
2022/08/01 05:44:17;;;;;;;22.65;19.08;;;;;;;17.72;100.00;100685.13;5053861;28;20059;-76
2022/08/01 05:46:42;;;;;;;20.30;17.35;;;;;;;17.72;100.00;100687.78;5049918;28;20375;-76
2022/08/01 05:49:08;;;;;;;20.92;17.75;;;;;;;17.66;100.00;100671.47;5079629;28;20025;-77
2022/08/01 05:51:33;;;;;;;23.23;17.63;;;;;;;17.71;100.00;100674.63;5086775;28;20434;-77
2022/08/01 05:53:59;;;;;;;23.20;19.05;;;;;;;17.76;100.00;100683.09;5091369;28;20037;-78
2022/08/01 05:56:24;;;;;;;25.75;18.25;;;;;;;17.76;100.00;100683.94;5081315;28;20111;-77
2022/08/01 05:58:50;;;;;;;22.52;18.75;;;;;;;17.59;100.00;100655.13;5073165;28;20082;-79
2022/08/01 06:01:16;;;;;;;28.95;21.42;;;;;;;17.84;100.00;100691.34;5072387;28;20037;-79
2022/08/01 06:03:42;;;;;;;22.73;20.13;;;;;;;17.80;100.00;100687.22;5060045;28;20036;-78
2022/08/01 06:06:07;;;;;;;24.25;19.08;;;;;;;17.79;100.00;100693.50;5067496;28;20043;-77
2022/08/01 06:08:33;;;;;;;21.60;19.13;;;;;;;17.74;100.00;100685.03;5069138;28;20024;-78
2022/08/01 06:10:58;;;;;;;27.45;20.02;;;;;;;17.67;100.00;100641.28;5059204;28;20090;-77
2022/08/01 06:13:24;;;;;;;23.15;19.45;;;;;;;17.98;100.00;100682.31;5056814;28;20103;-78
2022/08/01 06:15:49;;;;;;;29.58;21.92;;;;;;;17.92;100.00;100658.84;5073584;28;20030;-77
2022/08/01 06:18:15;;;;;;;24.67;21.77;;;;;;;17.83;100.00;100620.53;5077288;28;20104;-77
2022/08/01 06:20:40;;;;;;;25.50;20.83;;;;;;;18.17;100.00;100678.13;5077007;28;20081;-77
2022/08/01 06:23:06;;;;;;;24.70;21.33;;;;;;;18.20;100.00;100693.84;5059742;28;20051;-77
2022/08/01 06:25:31;;;;;;;29.73;21.88;;;;;;;18.21;100.00;100678.75;5053444;28;20044;-77
2022/08/01 06:27:57;;;;;;;29.65;20.58;;;;;;;18.26;100.00;100673.91;5067637;28;20410;-78
2022/08/01 06:30:23;;;;;;;25.92;22.42;;;;;;;18.23;100.00;100656.38;5072045;28;20020;-77
2022/08/01 06:32:48;;;;;;;38.58;24.67;;;;;;;18.25;100.00;100642.97;5084293;28;20024;-77
2022/08/01 06:35:15;;;;;;;35.08;24.52;;;;;;;18.34;100.00;100663.53;5064904;28;20056;-76
2022/08/01 06:37:40;;;;;;;35.08;26.67;;;;;;;18.49;100.00;100677.41;5070577;28;20107;-77
2022/08/01 06:40:08;;;;;;;31.58;21.92;;;;;;;18.58;100.00;100682.06;5044204;28;20559;-77
2022/08/01 06:42:37;;;;;;;23.10;20.20;;;;;;;18.36;100.00;100641.13;5052849;28;20434;-76
2022/08/01 06:45:08;;;;;;;30.17;22.73;;;;;;;18.70;100.00;100686.41;5059926;28;20025;-76
2022/08/01 06:47:33;;;;;;;29.90;22.67;;;;;;;18.72;100.00;100684.50;5046898;28;20061;-76
2022/08/01 06:49:59;;;;;;;27.38;22.67;;;;;;;18.57;100.00;100665.25;5067883;28;20412;-77
2022/08/01 06:52:24;;;;;;;29.60;23.48;;;;;;;18.65;100.00;100696.59;5059735;28;20119;-76
2022/08/01 06:54:50;;;;;;;25.70;22.85;;;;;;;18.21;100.00;100630.88;5121540;27;20421;-76
2022/08/01 06:57:15;;;;;;;25.88;23.13;;;;;;;18.44;100.00;100663.66;5068484;28;20029;-76
2022/08/01 06:59:40;;;;;;;25.17;22.58;;;;;;;18.57;100.00;100697.19;5071392;28;20140;-76
2022/08/01 07:02:07;;;;;;;25.25;22.13;;;;;;;18.51;100.00;100683.53;5073834;28;20103;-76
2022/08/01 07:04:33;;;;;;;30.05;22.88;;;;;;;18.66;100.00;100707.09;5040144;28;20040;-76
2022/08/01 07:06:58;;;;;;;28.60;24.08;;;;;;;18.59;100.00;100687.25;5071728;28;20020;-76
2022/08/01 07:09:24;;;;;;;31.65;24.27;;;;;;;18.61;100.00;100682.69;5069213;28;20047;-76
2022/08/01 07:11:50;;;;;;;29.90;23.40;;;;;;;18.74;100.00;100698.53;5074687;28;20032;-75
2022/08/01 07:14:16;;;;;;;26.58;23.77;;;;;;;18.61;100.00;100665.84;5075023;28;20016;-76
2022/08/01 07:16:41;;;;;;;29.13;25.05;;;;;;;18.87;100.00;100699.25;5076073;28;20036;-74
2022/08/01 07:19:07;;;;;;;32.15;25.42;;;;;;;18.74;100.00;100672.75;5071092;28;20067;-74
2022/08/01 07:21:33;;;;;;;32.28;27.83;;;;;;;18.91;100.00;100682.06;5064969;28;20021;-75
2022/08/01 07:23:58;;;;;;;31.00;27.55;;;;;;;18.96;100.00;100671.84;5060349;28;20617;-76
2022/08/01 07:26:23;;;;;;;28.85;25.92;;;;;;;19.07;100.00;100674.50;5060501;28;20081;-78
2022/08/01 07:28:49;;;;;;;26.10;22.90;;;;;;;19.10;100.00;100665.41;5068954;28;20024;-75
2022/08/01 07:31:14;;;;;;;23.30;20.92;;;;;;;19.34;100.00;100708.72;5055968;28;20029;-78
2022/08/01 07:33:40;;;;;;;23.25;18.38;;;;;;;19.12;100.00;100661.69;5053942;28;20040;-76
2022/08/01 07:36:05;;;;;;;24.73;19.33;;;;;;;19.30;100.00;100673.47;5059604;28;20089;-76
2022/08/01 07:38:30;;;;;;;18.58;16.45;;;;;;;19.32;100.00;100695.53;5072756;28;20041;-78
2022/08/01 07:40:56;;;;;;;17.65;15.95;;;;;;;19.44;100.00;100708.84;5071161;28;20060;-77
2022/08/01 07:43:22;;;;;;;19.85;17.83;;;;;;;19.32;100.00;100689.34;5076924;28;20032;-78
2022/08/01 07:45:47;;;;;;;17.38;15.45;;;;;;;19.38;100.00;100702.19;5070108;28;20028;-77
2022/08/01 07:48:12;;;;;;;18.65;15.43;;;;;;;19.48;100.00;100716.47;5096288;27;20428;-77
2022/08/01 07:50:38;;;;;;;19.42;16.60;;;;;;;19.28;100.00;100688.75;5070289;28;20029;-77
2022/08/01 07:53:04;;;;;;;17.50;15.57;;;;;;;19.51;100.00;100731.38;5070123;28;20024;-77
2022/08/01 07:55:29;;;;;;;17.20;15.43;;;;;;;19.33;100.00;100694.53;5071435;28;20040;-76
2022/08/01 07:57:54;;;;;;;19.70;14.23;;;;;;;19.52;100.00;100727.72;5070302;28;20099;-76
2022/08/01 08:00:20;;;;;;;17.58;15.77;;;;;;;19.69;100.00;100740.53;5073428;28;20066;-76
2022/08/01 08:02:45;;;;;;;24.10;15.45;;;;;;;19.61;100.00;100713.63;5063070;28;20032;-76
2022/08/01 08:05:11;;;;;;;16.80;14.50;;;;;;;19.38;100.00;100683.53;5058259;28;20059;-76
2022/08/01 08:07:37;;;;;;;19.98;14.48;;;;;;;19.87;100.00;100739.00;5078499;28;20032;-75
2022/08/01 08:10:04;;;;;;;23.70;14.82;;;;;;;19.87;100.00;100715.00;5058463;28;20033;-75
2022/08/01 08:12:29;;;;;;;16.02;14.32;;;;;;;20.01;100.00;100738.69;5073966;28;20459;-74
2022/08/01 08:14:55;;;;;;;16.85;14.35;;;;;;;19.77;100.00;100704.22;5079406;28;20037;-75
2022/08/01 08:17:20;;;;;;;12.75;11.45;;;;;;;19.88;100.00;100743.34;5058619;28;20057;-73
2022/08/01 08:19:46;;;;;;;13.00;11.70;;;;;;;19.78;100.00;100734.41;5053813;28;20099;-73
2022/08/01 08:22:11;;;;;;;13.48;12.05;;;;;;;19.76;100.00;100731.91;5055855;28;20036;-72
2022/08/01 08:24:37;;;;;;;15.50;12.77;;;;;;;19.95;100.00;100755.22;5049658;28;20086;-71
2022/08/01 08:27:03;;;;;;;15.52;12.80;;;;;;;19.91;100.00;100743.09;5054896;28;20471;-73
2022/08/01 08:29:31;;;;;;;14.85;11.55;;;;;;;20.09;100.00;100738.03;5059915;28;20037;-73
2022/08/01 08:31:57;;;;;;;14.65;13.18;;;;;;;20.24;100.00;100729.56;5097621;27;20028;-74
2022/08/01 08:34:23;;;;;;;14.38;12.07;;;;;;;20.45;100.00;100750.13;5066903;28;20085;-75
2022/08/01 08:36:49;;;;;;;11.23;10.05;;;;;;;20.50;100.00;100753.25;5060210;28;20036;-72
2022/08/01 08:39:16;;;;;;;12.00;10.65;;;;;;;20.33;100.00;100720.84;5055451;28;20032;-72
2022/08/01 08:41:41;;;;;;;15.77;14.00;;;;;;;20.44;100.00;100740.44;5071492;28;20051;-75
2022/08/01 08:44:08;;;;;;;13.88;11.45;;;;;;;20.39;100.00;100725.63;5060843;28;20029;-74
2022/08/01 08:46:41;;;;;;;11.63;9.75;;;;;;;20.36;100.00;100725.91;5060070;28;20479;-76
2022/08/01 08:49:06;;;;;;;10.75;9.15;;;;;;;20.49;100.00;100751.53;5063383;28;20040;-75
2022/08/01 08:51:33;;;;;;;10.55;8.43;;;;;;;20.50;100.00;100747.91;5056431;28;20037;-74
2022/08/01 08:54:00;;;;;;;13.43;10.18;;;;;;;20.49;100.00;100724.84;5078845;28;20037;-75
2022/08/01 08:56:29;;;;;;;12.32;10.38;;;;;;;20.77;100.00;100750.88;5056886;28;20111;-75
2022/08/01 08:58:55;;;;;;;13.48;9.07;;;;;;;20.75;100.00;100728.78;5079868;28;20120;-75
2022/08/01 09:01:20;;;;;;;18.65;10.15;;;;;;;20.82;100.00;100727.25;5072567;28;20826;-74
2022/08/01 09:03:47;;;;;;;12.55;10.07;;;;;;;21.06;100.00;100733.09;5052150;28;20085;-74
2022/08/01 09:06:13;;;;;;;17.15;10.27;;;;;;;21.26;100.00;100747.41;5042823;28;20025;-74
2022/08/01 09:08:39;;;;;;;11.05;9.35;;;;;;;21.40;100.00;100744.34;5060563;28;20112;-74
2022/08/01 09:11:04;;;;;;;8.40;7.57;;;;;;;21.46;100.00;100742.97;5072265;28;20111;-75
2022/08/01 09:13:30;;;;;;;9.32;8.32;;;;;;;21.50;100.00;100739.00;5057020;28;20112;-73
2022/08/01 09:15:58;;;;;;;12.40;8.30;;;;;;;21.67;100.00;100746.38;5066820;28;20029;-73
2022/08/01 09:18:43;;;;;;;8.68;7.65;;;;;;;21.70;100.00;100736.22;5090495;28;20032;-74
2022/08/01 09:21:09;;;;;;;;;;;;;;;21.79;100.00;100755.97;5078247;28;20032;-75
2022/08/01 09:23:42;;;;;;;7.80;6.57;;;;;;;21.67;100.00;100757.06;5100021;27;19958;-71
2022/08/01 09:26:29;;;;;;;9.45;7.88;;;;;;;21.67;100.00;100759.72;5074208;28;20032;-75
2022/08/01 09:28:54;;;;;;;8.02;6.85;;;;;;;21.67;100.00;100763.25;5070143;28;20115;-75
2022/08/01 09:31:19;;;;;;;6.78;6.07;;;;;;;21.72;100.00;100765.53;5060117;28;20116;-72
2022/08/01 09:33:54;;;;;;;7.78;6.13;;;;;;;21.64;100.00;100738.63;5065517;28;20410;-74
2022/08/01 09:36:22;;;;;;;7.43;5.82;;;;;;;21.68;100.00;100742.72;5075339;28;20541;-74
2022/08/01 09:38:48;;;;;;;6.97;5.90;;;;;;;21.91;100.00;100760.22;5056168;28;20082;-74
2022/08/01 09:41:13;;;;;;;8.80;5.60;;;;;;;21.85;100.00;100750.91;5052829;28;20406;-74
2022/08/01 09:43:39;;;;;;;10.52;5.38;;;;;;;21.98;100.00;100753.31;5053746;28;20075;-73
2022/08/01 09:46:10;;;;;;;12.85;6.13;;;;;;;22.09;100.00;100752.31;5071440;28;20055;-75
2022/08/01 09:48:36;;;;;;;6.97;5.57;;;;;;;22.23;100.00;100765.28;5068327;28;20459;-75
2022/08/01 09:51:02;;;;;;;6.30;5.50;;;;;;;22.04;100.00;100759.94;5067932;28;20033;-75
2022/08/01 09:53:40;;;;;;;5.35;4.53;;;;;;;22.07;100.00;100759.66;5059221;28;20419;-75
2022/08/01 09:56:10;;;;;;;6.20;5.22;;;;;;;22.19;100.00;100764.72;5063866;28;20029;-72
2022/08/01 09:58:49;;;;;;;6.10;5.38;;;;;;;22.21;100.00;100773.44;5062469;28;20060;-74
2022/08/01 10:01:14;;;;;;;6.70;5.00;;;;;;;22.29;100.00;100772.75;5061319;28;20052;-72
2022/08/01 10:03:39;;;;;;;6.80;5.00;;;;;;;22.28;100.00;100742.44;5050030;28;20122;-73
2022/08/01 10:06:21;;;;;;;7.63;5.25;;;;;;;22.47;100.00;100759.47;5052037;28;20029;-72
2022/08/01 10:08:47;;;;;;;6.45;4.70;;;;;;;22.35;100.00;100754.28;5057789;28;20033;-73
2022/08/01 10:11:13;;;;;;;6.65;5.57;;;;;;;22.47;100.00;100767.50;5077686;28;20429;-73
2022/08/01 10:13:39;;;;;;;6.30;4.88;;;;;;;22.55;100.00;100770.28;5071755;28;20096;-73
2022/08/01 10:16:05;;;;;;;5.25;4.75;;;;;;;22.52;100.00;100751.84;5060872;28;20028;-73
2022/08/01 10:18:33;;;;;;;6.50;4.68;;;;;;;22.53;100.00;100743.66;5059032;28;20447;-74
2022/08/01 10:21:02;;;;;;;7.70;5.45;;;;;;;22.66;100.00;100768.34;5094059;28;20395;-73
2022/08/01 10:23:32;;;;;;;5.68;5.05;;;;;;;22.67;100.00;100766.50;5056154;28;20029;-73
2022/08/01 10:26:01;;;;;;;6.75;5.22;;;;;;;22.60;100.00;100762.69;5068111;28;20116;-75
2022/08/01 10:28:30;;;;;;;7.50;5.85;;;;;;;22.55;100.00;100770.28;5070918;28;20166;-73
2022/08/01 10:30:57;;;;;;;6.55;5.15;;;;;;;22.34;100.00;100757.06;5055435;28;20029;-74
2022/08/01 10:33:23;;;;;;;6.97;4.53;;;;;;;22.42;100.00;100779.50;5083838;28;20472;-74
2022/08/01 10:35:50;;;;;;;6.03;4.07;;;;;;;22.60;100.00;100768.03;5074614;28;20033;-74
2022/08/01 10:38:16;;;;;;;4.95;4.45;;;;;;;22.57;100.00;100736.19;5078656;28;20015;-74
2022/08/01 10:40:42;;;;;;;5.50;4.35;;;;;;;22.90;100.00;100765.16;5065629;28;20507;-74
2022/08/01 10:43:10;;;;;;;6.85;4.38;;;;;;;22.65;100.00;100736.28;5050446;28;20475;-74
2022/08/01 10:45:36;;;;;;;6.03;4.30;;;;;;;22.96;100.00;100750.31;5053256;28;20041;-74
2022/08/01 10:48:31;;;;;;;5.70;3.38;;;;;;;23.24;100.00;100758.22;5058068;28;20386;-74
2022/08/01 10:51:02;;;;;;;4.03;3.30;;;;;;;23.35;100.00;100752.63;5050765;28;20067;-74
2022/08/01 10:53:28;;;;;;;3.60;2.85;;;;;;;23.18;100.00;100742.75;5082737;28;20107;-74
2022/08/01 10:55:56;;;;;;;4.72;3.50;;;;;;;23.25;100.00;100756.41;5051482;28;20436;-74
2022/08/01 10:58:37;;;;;;;4.20;3.40;;;;;;;23.45;100.00;100749.09;5061208;28;20040;-73
2022/08/01 11:01:29;;;;;;;4.50;3.28;;;;;;;23.76;100.00;100748.59;5056396;28;20471;-73
2022/08/01 11:04:09;;;;;;;4.50;2.70;;;;;;;23.70;100.00;100742.97;5069224;28;20055;-72
2022/08/01 11:06:34;;;;;;;6.07;3.38;;;;;;;23.70;100.00;100748.34;5060681;28;20164;-73
2022/08/01 11:09:05;;;;;;;4.68;3.08;;;;;;;23.51;100.00;100733.25;5052560;28;20071;-77
2022/08/01 11:11:31;;;;;;;4.07;3.00;;;;;;;23.49;100.00;100734.41;5061807;28;20033;-75